Time,TemperatureF,DewpointF,PressureIn,WindDirection,WindDirectionDegrees,WindSpeedMPH,WindSpeedGustMPH,Humidity,HourlyPrecipIn,Conditions,Clouds,dailyrainin,SolarRadiationWatts/m^2,SoftwareType,DateUTC
2013-08-24 00:14:00,83.0,74.0,-100.00,SE,125,5.0,11.0,75,0.00,,,0.00,0.000000,,2013-08-24 04:14:00,
2013-08-24 00:24:00,83.0,74.0,-100.00,SE,125,5.0,11.0,75,0.00,,,0.00,0.000000,,2013-08-24 04:24:00,
2013-08-24 00:34:00,83.0,74.0,-100.00,SE,125,5.0,11.0,75,0.00,,,0.00,0.000000,,2013-08-24 04:34:00,
2013-08-24 01:13:00,83.0,74.0,-100.00,SE,129,5.0,10.0,74,0.00,,,0.00,0.000000,,2013-08-24 05:13:00,
2013-08-24 01:23:00,83.0,74.0,-100.00,SE,129,5.0,10.0,74,0.00,,,0.00,0.000000,,2013-08-24 05:23:00,
2013-08-24 01:33:00,83.0,74.0,-100.00,SE,129,5.0,10.0,74,0.00,,,0.00,0.000000,,2013-08-24 05:33:00,
2013-08-24 02:12:00,83.0,75.0,-100.00,SE,126,5.0,11.0,76,0.00,,,0.00,0.000000,,2013-08-24 06:12:00,
2013-08-24 02:22:00,83.0,75.0,-100.00,SE,126,5.0,11.0,76,0.00,,,0.00,0.000000,,2013-08-24 06:22:00,
2013-08-24 02:32:00,83.0,75.0,-100.00,SE,126,5.0,11.0,76,0.00,,,0.00,0.000000,,2013-08-24 06:32:00,
2013-08-24 03:12:00,80.0,74.0,-100.00,SSE,152,4.0,9.0,82,0.04,,,0.04,0.000000,,2013-08-24 07:12:00,
2013-08-24 03:22:00,80.0,74.0,-100.00,SSE,152,4.0,9.0,82,0.04,,,0.04,0.000000,,2013-08-24 07:22:00,
2013-08-24 03:32:00,80.0,74.0,-100.00,SSE,152,4.0,9.0,82,0.04,,,0.04,0.000000,,2013-08-24 07:32:00,
2013-08-24 04:12:00,80.0,74.0,-100.00,SE,141,2.0,7.0,83,0.00,,,0.04,0.000000,,2013-08-24 08:12:00,
2013-08-24 04:22:00,80.0,74.0,-100.00,SE,141,2.0,7.0,83,0.00,,,0.04,0.000000,,2013-08-24 08:22:00,
2013-08-24 04:32:00,80.0,74.0,-100.00,SE,141,2.0,7.0,83,0.00,,,0.04,0.000000,,2013-08-24 08:32:00,
2013-08-24 05:11:00,77.0,73.0,-100.00,South,172,0.0,10.0,88,0.00,,,0.04,0.000000,,2013-08-24 09:11:00,
2013-08-24 05:22:00,77.0,73.0,-100.00,South,172,0.0,10.0,88,0.00,,,0.04,0.000000,,2013-08-24 09:22:00,
2013-08-24 05:34:00,77.0,73.0,-100.00,South,172,0.0,10.0,88,0.00,,,0.04,0.000000,,2013-08-24 09:34:00,
2013-08-24 06:13:00,79.0,74.0,-100.00,SSE,147,3.0,6.0,86,0.00,,,0.04,0.000000,,2013-08-24 10:13:00,
2013-08-24 06:23:00,79.0,74.0,-100.00,SSE,147,3.0,6.0,86,0.00,,,0.04,0.000000,,2013-08-24 10:23:00,
2013-08-24 06:33:00,79.0,74.0,-100.00,SSE,147,3.0,6.0,86,0.00,,,0.04,0.000000,,2013-08-24 10:33:00,
2013-08-24 07:12:00,78.0,75.0,-100.00,South,171,3.0,5.0,90,0.00,,,0.04,0.000000,,2013-08-24 11:12:00,
2013-08-24 07:22:00,78.0,75.0,-100.00,South,171,3.0,5.0,90,0.00,,,0.04,0.000000,,2013-08-24 11:22:00,
2013-08-24 07:33:00,78.0,75.0,-100.00,South,171,3.0,5.0,90,0.00,,,0.04,0.000000,,2013-08-24 11:33:00,
2013-08-24 08:12:00,78.0,73.0,-100.00,SSE,151,2.0,5.0,86,0.00,,,0.04,14.000000,,2013-08-24 12:12:00,
2013-08-24 08:21:00,78.0,73.0,-100.00,SSE,151,2.0,5.0,86,0.00,,,0.04,14.000000,,2013-08-24 12:21:00,
2013-08-24 08:32:00,78.0,73.0,-100.00,SSE,151,2.0,5.0,86,0.00,,,0.04,14.000000,,2013-08-24 12:32:00,
2013-08-24 09:11:00,85.0,75.0,-100.00,SE,146,3.0,6.0,73,0.00,,,0.04,143.000000,,2013-08-24 13:11:00,
2013-08-24 09:22:00,85.0,75.0,-100.00,SE,146,3.0,6.0,73,0.00,,,0.04,143.000000,,2013-08-24 13:22:00,
2013-08-24 09:32:00,85.0,75.0,-100.00,SE,146,3.0,6.0,73,0.00,,,0.04,143.000000,,2013-08-24 13:32:00,
2013-08-24 10:11:00,88.0,77.0,-100.00,SSE,148,5.0,10.0,69,0.00,,,0.04,342.000000,,2013-08-24 14:11:00,
2013-08-24 10:22:00,88.0,77.0,-100.00,SSE,148,5.0,10.0,69,0.00,,,0.04,342.000000,,2013-08-24 14:22:00,
2013-08-24 10:32:00,88.0,77.0,-100.00,SSE,148,5.0,10.0,69,0.00,,,0.04,342.000000,,2013-08-24 14:32:00,
2013-08-24 11:12:00,88.0,76.0,-100.00,ESE,121,4.0,10.0,67,0.00,,,0.04,420.000000,,2013-08-24 15:12:00,
2013-08-24 11:22:00,88.0,76.0,-100.00,ESE,121,4.0,10.0,67,0.00,,,0.04,420.000000,,2013-08-24 15:22:00,
2013-08-24 11:34:00,88.0,76.0,-100.00,ESE,121,4.0,10.0,67,0.00,,,0.04,420.000000,,2013-08-24 15:34:00,
2013-08-24 12:14:00,90.0,76.0,-100.00,ESE,104,5.0,11.0,63,0.00,,,0.04,570.000000,,2013-08-24 16:14:00,
2013-08-24 12:23:00,90.0,76.0,-100.00,ESE,104,5.0,11.0,63,0.00,,,0.04,570.000000,,2013-08-24 16:23:00,
2013-08-24 12:33:00,90.0,76.0,-100.00,ESE,104,5.0,11.0,63,0.00,,,0.04,570.000000,,2013-08-24 16:33:00,
2013-08-24 13:12:00,90.0,75.0,-100.00,ESE,114,6.0,11.0,62,0.00,,,0.04,802.000000,,2013-08-24 17:12:00,
2013-08-24 13:23:00,90.0,75.0,-100.00,ESE,114,6.0,11.0,62,0.00,,,0.04,802.000000,,2013-08-24 17:23:00,
2013-08-24 13:34:00,90.0,75.0,-100.00,ESE,114,6.0,11.0,62,0.00,,,0.04,802.000000,,2013-08-24 17:34:00,
2013-08-24 14:13:00,90.0,74.0,-100.00,SE,144,6.0,12.0,60,0.00,,,0.04,697.000000,,2013-08-24 18:13:00,
2013-08-24 14:22:00,90.0,74.0,-100.00,SE,144,6.0,12.0,60,0.00,,,0.04,697.000000,,2013-08-24 18:22:00,
2013-08-24 14:32:00,90.0,74.0,-100.00,SE,144,6.0,12.0,60,0.00,,,0.04,697.000000,,2013-08-24 18:32:00,
2013-08-24 15:12:00,91.0,74.0,-100.00,SE,131,6.0,12.0,57,0.00,,,0.04,917.000000,,2013-08-24 19:12:00,
2013-08-24 15:22:00,91.0,74.0,-100.00,SE,131,6.0,12.0,57,0.00,,,0.04,917.000000,,2013-08-24 19:22:00,
2013-08-24 15:32:00,91.0,74.0,-100.00,SE,131,6.0,12.0,57,0.00,,,0.04,917.000000,,2013-08-24 19:32:00,
2013-08-24 16:12:00,91.0,74.0,-100.00,SSE,151,8.0,13.0,58,0.00,,,0.04,750.000000,,2013-08-24 20:12:00,
2013-08-24 16:22:00,91.0,74.0,-100.00,SSE,151,8.0,13.0,58,0.00,,,0.04,750.000000,,2013-08-24 20:22:00,
2013-08-24 16:32:00,91.0,74.0,-100.00,SSE,151,8.0,13.0,58,0.00,,,0.04,750.000000,,2013-08-24 20:32:00,
2013-08-24 17:11:00,90.0,75.0,-100.00,ESE,113,6.0,12.0,62,0.00,,,-99.99,691.000000,,2013-08-24 21:11:00,
2013-08-24 17:22:00,90.0,75.0,-100.00,ESE,113,6.0,12.0,62,0.00,,,-99.99,691.000000,,2013-08-24 21:22:00,
2013-08-24 17:34:00,90.0,75.0,-100.00,ESE,113,6.0,12.0,62,0.00,,,-99.99,691.000000,,2013-08-24 21:34:00,
2013-08-24 18:14:00,89.0,74.0,-100.00,SE,133,5.0,11.0,62,0.00,,,0.04,379.000000,,2013-08-24 22:14:00,
2013-08-24 18:24:00,89.0,74.0,-100.00,SE,133,5.0,11.0,62,0.00,,,0.04,379.000000,,2013-08-24 22:24:00,
2013-08-24 18:33:00,89.0,74.0,-100.00,SE,133,5.0,11.0,62,0.00,,,0.04,379.000000,,2013-08-24 22:33:00,
2013-08-24 19:12:00,85.0,72.0,-100.00,SSE,155,5.0,11.0,66,0.00,,,0.04,212.000000,,2013-08-24 23:12:00,
2013-08-24 19:22:00,85.0,72.0,-100.00,SSE,155,5.0,11.0,66,0.00,,,0.04,212.000000,,2013-08-24 23:22:00,
2013-08-24 19:34:00,85.0,72.0,-100.00,SSE,155,5.0,11.0,66,0.00,,,0.04,212.000000,,2013-08-24 23:34:00,
2013-08-24 20:12:00,84.0,74.0,-100.00,SE,127,4.0,9.0,71,0.00,,,0.04,54.000000,,2013-08-25 00:12:00,
2013-08-24 20:22:00,84.0,74.0,-100.00,SE,127,4.0,9.0,71,0.00,,,0.04,54.000000,,2013-08-25 00:22:00,
2013-08-24 20:32:00,84.0,74.0,-100.00,SE,127,4.0,9.0,71,0.00,,,0.04,54.000000,,2013-08-25 00:32:00,
2013-08-24 21:11:00,83.0,74.0,-100.00,SSE,150,3.0,7.0,74,0.00,,,0.04,3.000000,,2013-08-25 01:11:00,
2013-08-24 21:22:00,83.0,74.0,-100.00,SSE,150,3.0,7.0,74,0.00,,,0.04,3.000000,,2013-08-25 01:22:00,
2013-08-24 21:32:00,83.0,74.0,-100.00,SSE,150,3.0,7.0,74,0.00,,,0.04,3.000000,,2013-08-25 01:32:00,
2013-08-24 22:12:00,83.0,74.0,-100.00,SE,125,4.0,7.0,74,0.00,,,0.04,0.000000,,2013-08-25 02:12:00,
2013-08-24 22:22:00,83.0,74.0,-100.00,SE,125,4.0,7.0,74,0.00,,,0.04,0.000000,,2013-08-25 02:22:00,
2013-08-24 22:33:00,83.0,74.0,-100.00,SE,125,4.0,7.0,74,0.00,,,0.04,0.000000,,2013-08-25 02:33:00,
2013-08-24 23:11:00,83.0,73.0,-100.00,East,87,5.0,10.0,72,0.00,,,0.04,0.000000,,2013-08-25 03:11:00,
2013-08-24 23:23:00,83.0,73.0,-100.00,East,87,5.0,10.0,72,0.00,,,0.04,0.000000,,2013-08-25 03:23:00,
2013-08-24 23:34:00,83.0,73.0,-100.00,East,87,5.0,10.0,72,0.00,,,0.04,0.000000,,2013-08-25 03:34:00,